createdAt,value
2022-10-28T00:00:29.139Z,14.22
2022-10-28T00:02:55.898Z,14.09
2022-10-28T00:05:22.749Z,14.05
2022-10-28T00:07:49.135Z,14.17
2022-10-28T00:10:15.763Z,14.27
2022-10-28T00:12:42.222Z,14.21
2022-10-28T00:15:09.117Z,14.15
2022-10-28T00:17:35.546Z,14.18
2022-10-28T00:20:01.993Z,14.22
2022-10-28T00:22:28.511Z,14.17
2022-10-28T00:24:54.924Z,13.94
2022-10-28T00:27:21.352Z,13.89
2022-10-28T00:29:47.750Z,13.94
2022-10-28T00:32:14.153Z,13.89
2022-10-28T00:34:40.563Z,13.82
2022-10-28T00:37:06.987Z,13.81
2022-10-28T00:39:33.411Z,13.74
2022-10-28T00:42:03.716Z,13.58
2022-10-28T00:44:53.440Z,13.33
2022-10-28T00:47:38.547Z,13.14
2022-10-28T00:50:20.749Z,13.08
2022-10-28T00:52:59.466Z,13.09
2022-10-28T00:55:26.134Z,13.09
2022-10-28T00:57:57.985Z,13.15
2022-10-28T01:00:25.962Z,13.31
2022-10-28T01:02:52.421Z,13.44
2022-10-28T01:05:26.849Z,13.49
2022-10-28T01:07:59.662Z,13.45
2022-10-28T01:10:54.377Z,13.37
2022-10-28T01:13:34.856Z,13.27
2022-10-28T01:16:18.565Z,13.17
2022-10-28T01:19:14.669Z,13.13
2022-10-28T01:22:18.507Z,13.11
2022-10-28T01:25:07.522Z,13.12
2022-10-28T01:27:52.165Z,13.04
2022-10-28T01:30:21.234Z,12.99
2022-10-28T01:33:19.608Z,13.04
2022-10-28T01:35:55.881Z,13.13
2022-10-28T01:38:40.972Z,13.27
2022-10-28T01:41:15.973Z,13.32
2022-10-28T01:44:01.088Z,13.33
2022-10-28T01:47:01.637Z,13.18
2022-10-28T01:49:42.595Z,13.08
2022-10-28T01:52:17.117Z,13.02
2022-10-28T01:54:48.649Z,12.98
2022-10-28T01:57:18.154Z,12.93
2022-10-28T01:59:47.141Z,13.00
2022-10-28T02:02:15.829Z,13.00
2022-10-28T02:04:42.274Z,12.98
2022-10-28T02:07:08.876Z,13.01
2022-10-28T02:10:01.986Z,12.86
2022-10-28T02:12:37.745Z,12.85
2022-10-28T02:15:25.781Z,12.92
2022-10-28T02:18:12.436Z,12.97
2022-10-28T02:20:48.678Z,13.04
2022-10-28T02:23:33.210Z,12.94
2022-10-28T02:26:03.599Z,12.91
2022-10-28T02:28:41.017Z,12.93
2022-10-28T02:31:11.124Z,12.83
2022-10-28T02:33:39.554Z,12.75
2022-10-28T02:36:18.497Z,12.84
2022-10-28T02:38:58.112Z,12.88
2022-10-28T02:41:27.639Z,12.95
2022-10-28T02:43:59.254Z,12.88
2022-10-28T02:46:29.876Z,12.85
2022-10-28T02:49:08.781Z,12.67
2022-10-28T02:51:40.440Z,12.52
2022-10-28T02:54:24.476Z,12.51
2022-10-28T02:57:17.375Z,12.52
2022-10-28T02:59:43.922Z,12.55
2022-10-28T03:02:10.480Z,12.63
2022-10-28T03:04:36.997Z,12.65
2022-10-28T03:07:03.483Z,12.69
2022-10-28T03:09:30.004Z,12.66
2022-10-28T03:11:56.466Z,12.68
2022-10-28T03:14:23.078Z,12.60
2022-10-28T03:16:49.604Z,12.56
2022-10-28T03:19:16.046Z,12.49
2022-10-28T03:21:42.539Z,12.55
2022-10-28T03:24:09.058Z,12.57
2022-10-28T03:26:35.537Z,12.55
2022-10-28T03:29:03.230Z,12.61
2022-10-28T03:31:29.736Z,12.58
2022-10-28T03:33:56.402Z,12.65
2022-10-28T03:36:22.922Z,12.62
2022-10-28T03:38:49.405Z,12.64
2022-10-28T03:41:15.912Z,12.71
2022-10-28T03:43:42.372Z,12.70
2022-10-28T03:46:08.864Z,12.73
2022-10-28T03:48:35.347Z,12.73
2022-10-28T03:51:01.847Z,12.68
2022-10-28T03:53:31.163Z,12.54
2022-10-28T03:56:02.615Z,12.54
2022-10-28T03:58:29.380Z,12.61
2022-10-28T04:00:56.759Z,12.56
2022-10-28T04:03:25.490Z,12.48
2022-10-28T04:05:52.166Z,12.45
2022-10-28T04:08:19.878Z,12.41
2022-10-28T04:10:47.666Z,12.35
2022-10-28T04:13:15.424Z,12.33
2022-10-28T04:15:42.015Z,12.35
2022-10-28T04:18:08.569Z,12.37
2022-10-28T04:20:35.378Z,12.38
2022-10-28T04:23:02.160Z,12.25
2022-10-28T04:25:29.268Z,12.21
2022-10-28T04:27:56.028Z,12.21
2022-10-28T04:30:22.888Z,12.13
2022-10-28T04:32:49.412Z,12.11
2022-10-28T04:35:16.213Z,12.06
2022-10-28T04:37:42.682Z,11.99
2022-10-28T04:40:09.763Z,12.04
2022-10-28T04:42:36.174Z,12.16
2022-10-28T04:45:02.660Z,12.22
2022-10-28T04:47:29.086Z,12.17
2022-10-28T04:49:55.504Z,11.99
2022-10-28T04:52:21.980Z,12.03
2022-10-28T04:54:48.399Z,12.06
2022-10-28T04:57:14.842Z,12.12
2022-10-28T04:59:41.267Z,12.20
2022-10-28T05:02:07.937Z,12.28
2022-10-28T05:04:34.416Z,12.34
2022-10-28T05:07:00.831Z,12.34
2022-10-28T05:09:27.235Z,12.42
2022-10-28T05:11:54.342Z,12.44
2022-10-28T05:14:20.814Z,12.43
2022-10-28T05:16:47.220Z,12.41
2022-10-28T05:19:13.657Z,12.42
2022-10-28T05:22:01.954Z,12.43
2022-10-28T05:24:28.509Z,12.39
2022-10-28T05:26:54.947Z,12.37
2022-10-28T05:29:21.399Z,12.33
2022-10-28T05:31:47.850Z,12.32
2022-10-28T05:34:14.259Z,12.30
2022-10-28T05:36:40.656Z,12.30
2022-10-28T05:39:07.052Z,12.34
2022-10-28T05:41:38.467Z,12.21
2022-10-28T05:44:05.736Z,12.14
2022-10-28T05:46:32.110Z,12.12
2022-10-28T05:48:58.526Z,12.10
2022-10-28T05:51:24.991Z,12.19
2022-10-28T05:53:51.495Z,12.23
2022-10-28T05:56:18.529Z,12.23
2022-10-28T05:58:45.017Z,12.29
2022-10-28T06:01:11.566Z,12.27
2022-10-28T06:03:38.124Z,12.23
2022-10-28T06:06:04.691Z,12.29
2022-10-28T06:08:31.342Z,12.44
2022-10-28T06:10:56.511Z,12.44
2022-10-28T06:13:23.010Z,12.46
2022-10-28T06:15:54.059Z,12.40
2022-10-28T06:18:21.202Z,12.31
2022-10-28T06:20:57.977Z,12.21
2022-10-28T06:23:25.650Z,12.20
2022-10-28T06:28:24.237Z,12.11
2022-10-28T06:30:51.040Z,12.16
2022-10-28T06:33:17.589Z,12.04
2022-10-28T06:35:44.009Z,12.12
2022-10-28T06:38:10.434Z,12.21
2022-10-28T06:40:36.875Z,12.25
2022-10-28T06:43:05.769Z,12.38
2022-10-28T06:45:33.367Z,12.68
2022-10-28T06:48:03.591Z,12.84
2022-10-28T06:50:32.276Z,12.97
2022-10-28T06:52:59.197Z,12.80
2022-10-28T06:55:27.078Z,12.83
2022-10-28T06:57:54.380Z,13.07
2022-10-28T07:00:21.329Z,13.07
2022-10-28T07:02:55.159Z,13.03
2022-10-28T07:05:23.879Z,13.13
2022-10-28T07:07:50.309Z,13.25
2022-10-28T07:10:16.799Z,13.15
2022-10-28T07:12:43.210Z,13.37
2022-10-28T07:15:10.163Z,13.53
2022-10-28T07:17:36.894Z,13.69
2022-10-28T07:20:03.998Z,13.82
2022-10-28T07:22:30.447Z,13.88
2022-10-28T07:24:56.869Z,13.94
2022-10-28T07:27:23.287Z,13.69
2022-10-28T07:29:49.697Z,13.48
2022-10-28T07:32:16.122Z,13.45
2022-10-28T07:34:42.621Z,13.46
2022-10-28T07:37:11.076Z,13.48
2022-10-28T07:39:38.182Z,13.42
2022-10-28T07:42:04.636Z,13.41
2022-10-28T07:44:31.034Z,13.44
2022-10-28T07:46:58.358Z,13.51
2022-10-28T07:49:28.074Z,13.60
2022-10-28T07:51:54.534Z,13.73
2022-10-28T07:54:21.059Z,13.74
2022-10-28T07:56:47.760Z,13.80
2022-10-28T07:59:14.236Z,13.82
2022-10-28T08:01:40.841Z,13.91
2022-10-28T08:04:07.417Z,13.95
2022-10-28T08:06:35.056Z,13.96
2022-10-28T08:09:02.146Z,14.06
2022-10-28T08:11:28.711Z,14.17
2022-10-28T08:13:55.875Z,14.25
2022-10-28T08:16:22.305Z,14.34
2022-10-28T08:18:48.863Z,14.43
2022-10-28T08:21:15.532Z,14.55
2022-10-28T08:23:46.388Z,14.64
2022-10-28T08:26:14.533Z,14.74
2022-10-28T08:28:40.948Z,14.84
2022-10-28T08:31:12.186Z,14.95
2022-10-28T08:33:39.592Z,15.04
2022-10-28T08:36:07.573Z,15.12
2022-10-28T08:38:34.044Z,15.26
2022-10-28T08:41:08.107Z,15.40
2022-10-28T08:43:56.720Z,15.48
2022-10-28T08:46:49.848Z,15.68
2022-10-28T08:49:20.419Z,15.86
2022-10-28T08:52:02.436Z,16.03
2022-10-28T08:54:36.059Z,16.03
2022-10-28T08:57:06.053Z,16.03
2022-10-28T08:59:37.664Z,15.97
2022-10-28T09:02:24.468Z,16.14
2022-10-28T09:05:07.851Z,16.10
2022-10-28T09:07:37.046Z,16.21
2022-10-28T09:10:05.081Z,16.45
2022-10-28T09:13:07.044Z,16.46
2022-10-28T09:16:04.972Z,16.69
2022-10-28T09:18:51.328Z,16.73
2022-10-28T09:21:26.540Z,16.74
2022-10-28T09:23:58.757Z,16.80
2022-10-28T09:26:57.359Z,16.89
2022-10-28T09:29:32.668Z,17.00
2022-10-28T09:32:14.315Z,17.12
2022-10-28T09:35:06.295Z,17.29
2022-10-28T09:37:41.258Z,17.42
2022-10-28T09:40:19.797Z,17.60
2022-10-28T09:43:06.791Z,17.66
2022-10-28T09:45:37.534Z,17.72
2022-10-28T09:48:19.158Z,17.92
2022-10-28T09:50:45.956Z,17.96
2022-10-28T09:53:26.409Z,18.12
2022-10-28T09:55:52.971Z,18.17
2022-10-28T09:58:19.555Z,18.07
2022-10-28T10:01:32.979Z,18.00
2022-10-28T10:03:59.621Z,17.97
2022-10-28T10:06:32.092Z,18.11
2022-10-28T10:09:00.259Z,18.22
2022-10-28T10:11:26.591Z,18.23
2022-10-28T10:13:55.009Z,18.16
2022-10-28T10:16:34.718Z,18.08
2022-10-28T10:19:03.387Z,18.04
2022-10-28T10:21:52.833Z,17.99
2022-10-28T10:24:31.241Z,17.97
2022-10-28T10:27:19.883Z,17.87
2022-10-28T10:29:52.254Z,17.84
2022-10-28T10:32:18.610Z,17.90
2022-10-28T10:34:51.227Z,17.97
2022-10-28T10:37:22.720Z,17.98
2022-10-28T10:40:06.550Z,17.98
2022-10-28T10:42:39.136Z,18.04
2022-10-28T10:45:16.024Z,18.27
2022-10-28T10:47:43.044Z,18.53
2022-10-28T10:53:01.855Z,18.93
2022-10-28T10:55:28.202Z,19.02
2022-10-28T10:57:55.775Z,19.23
2022-10-28T11:00:25.450Z,19.40
2022-10-28T11:02:55.055Z,19.40
2022-10-28T11:05:27.145Z,19.41
2022-10-28T11:08:04.868Z,19.42
2022-10-28T11:10:34.412Z,19.40
2022-10-28T11:13:25.311Z,19.52
2022-10-28T11:16:02.671Z,19.68
2022-10-28T11:18:38.765Z,19.84
2022-10-28T11:21:12.142Z,19.97
2022-10-28T11:23:46.472Z,20.01
2022-10-28T11:26:16.038Z,20.08
2022-10-28T11:29:09.862Z,20.08
2022-10-28T11:31:46.201Z,20.08
2022-10-28T11:34:31.256Z,20.21
2022-10-28T11:37:09.462Z,20.25
2022-10-28T11:40:03.428Z,20.30
2022-10-28T11:42:51.409Z,20.29
2022-10-28T11:45:31.295Z,20.46
2022-10-28T11:48:04.679Z,20.58
2022-10-28T11:51:00.892Z,20.48
2022-10-28T11:53:56.347Z,20.51
2022-10-28T11:56:47.588Z,20.46
2022-10-28T11:59:29.236Z,20.57
2022-10-28T12:02:10.929Z,20.59
2022-10-28T12:04:57.653Z,20.63
2022-10-28T12:08:05.620Z,20.87
2022-10-28T12:10:40.135Z,20.96
2022-10-28T12:13:20.741Z,21.16
2022-10-28T12:16:11.755Z,21.15
2022-10-28T12:18:56.865Z,21.10
2022-10-28T12:24:17.345Z,21.20
2022-10-28T12:26:51.094Z,21.19
2022-10-28T12:29:20.449Z,21.24
2022-10-28T12:32:01.411Z,21.42
2022-10-28T12:37:11.506Z,21.37
2022-10-28T12:40:01.588Z,21.38
2022-10-28T12:42:34.045Z,21.34
2022-10-28T12:45:04.359Z,21.36
2022-10-28T12:47:51.081Z,21.44
2022-10-28T12:50:25.536Z,21.39
2022-10-28T12:52:59.696Z,21.38
2022-10-28T12:55:33.439Z,21.38
2022-10-28T12:58:06.080Z,21.39
2022-10-28T13:00:37.809Z,21.44
2022-10-28T13:03:07.783Z,21.41
2022-10-28T13:05:47.472Z,21.39
2022-10-28T13:08:29.810Z,21.34
2022-10-28T13:11:28.208Z,21.39
2022-10-28T13:14:38.952Z,21.36
2022-10-28T13:17:28.413Z,21.24
2022-10-28T13:20:03.908Z,21.29
2022-10-28T13:22:46.673Z,21.27
2022-10-28T13:25:22.057Z,21.26
2022-10-28T13:27:58.232Z,21.32
2022-10-28T13:30:25.899Z,21.39
2022-10-28T13:33:03.503Z,21.37
2022-10-28T13:35:30.915Z,21.41
2022-10-28T13:37:59.803Z,21.44
2022-10-28T13:40:31.911Z,21.45
2022-10-28T13:43:00.472Z,21.45
2022-10-28T13:45:55.701Z,21.42
2022-10-28T13:48:28.249Z,21.41
2022-10-28T13:51:20.930Z,21.43
2022-10-28T13:53:47.478Z,21.41
2022-10-28T13:56:35.846Z,21.34
2022-10-28T13:59:14.520Z,21.29
2022-10-28T14:01:56.518Z,21.31
2022-10-28T14:04:38.218Z,21.33
2022-10-28T14:07:10.550Z,21.34
2022-10-28T14:09:39.774Z,21.29
2022-10-28T14:12:17.395Z,21.24
2022-10-28T14:14:51.942Z,21.24
2022-10-28T14:17:22.473Z,21.29
2022-10-28T14:19:52.654Z,21.31
2022-10-28T14:22:36.587Z,21.34
2022-10-28T14:25:46.083Z,21.26
2022-10-28T14:28:27.545Z,21.22
2022-10-28T14:31:08.980Z,21.20
2022-10-28T14:33:44.303Z,21.18
2022-10-28T14:36:19.540Z,21.21
2022-10-28T14:39:06.794Z,21.23
2022-10-28T14:41:36.389Z,21.26
2022-10-28T14:44:33.190Z,21.28
2022-10-28T14:47:49.118Z,21.21
2022-10-28T14:50:29.267Z,21.20
2022-10-28T14:52:56.725Z,21.13
2022-10-28T14:55:30.884Z,21.03
2022-10-28T14:58:20.361Z,20.93
2022-10-28T15:01:01.964Z,20.84
2022-10-28T15:03:28.923Z,20.80
2022-10-28T15:05:55.922Z,20.70
2022-10-28T15:08:24.259Z,20.65
2022-10-28T15:10:50.968Z,20.60
2022-10-28T15:13:19.207Z,20.55
2022-10-28T15:15:54.393Z,20.52
2022-10-28T15:18:23.699Z,20.48
2022-10-28T15:20:50.245Z,20.42
2022-10-28T15:23:22.220Z,20.40
2022-10-28T15:26:18.902Z,20.36
2022-10-28T15:28:45.575Z,20.30
2022-10-28T15:31:12.004Z,20.28
2022-10-28T15:33:40.577Z,20.23
2022-10-28T15:36:19.758Z,20.20
2022-10-28T15:39:07.238Z,20.15
2022-10-28T15:41:45.458Z,20.11
2022-10-28T15:44:25.726Z,20.10
2022-10-28T15:46:53.116Z,20.06
2022-10-28T15:49:35.901Z,19.98
2022-10-28T15:52:17.352Z,19.93
2022-10-28T15:54:54.584Z,19.83
2022-10-28T15:57:23.193Z,19.74
2022-10-28T16:00:09.568Z,19.69
2022-10-28T16:02:41.178Z,19.63
2022-10-28T16:05:42.414Z,19.57
2022-10-28T16:08:38.327Z,19.48
2022-10-28T16:11:13.562Z,19.36
2022-10-28T16:13:47.161Z,19.29
2022-10-28T16:16:28.041Z,19.21
2022-10-28T16:19:20.339Z,19.12
2022-10-28T16:21:46.745Z,19.07
2022-10-28T16:24:13.259Z,19.02
2022-10-28T16:26:39.669Z,18.96
2022-10-28T16:29:06.099Z,18.92
2022-10-28T16:31:32.568Z,18.87
2022-10-28T16:33:59.721Z,18.82
2022-10-28T16:36:28.179Z,18.76
2022-10-28T16:38:54.738Z,18.72
2022-10-28T16:41:21.309Z,18.64
2022-10-28T16:43:47.739Z,18.59
2022-10-28T16:46:14.731Z,18.55
2022-10-28T16:48:41.270Z,18.49
2022-10-28T16:51:25.915Z,18.42
2022-10-28T16:53:52.365Z,18.34
2022-10-28T16:56:18.815Z,18.33
2022-10-28T16:58:46.178Z,18.29
2022-10-28T17:01:17.764Z,18.26
2022-10-28T17:03:44.317Z,18.20
2022-10-28T17:06:10.728Z,18.10
2022-10-28T17:09:01.219Z,17.99
2022-10-28T17:11:24.041Z,17.95
2022-10-28T17:13:50.560Z,17.94
2022-10-28T17:16:16.975Z,17.92
2022-10-28T17:18:44.182Z,17.87
2022-10-28T17:21:10.682Z,17.80
2022-10-28T17:23:39.561Z,17.73
2022-10-28T17:26:06.050Z,17.65
2022-10-28T17:28:32.549Z,17.60
2022-10-28T17:31:04.476Z,17.54
2022-10-28T17:33:31.044Z,17.48
2022-10-28T17:36:05.350Z,17.43
2022-10-28T17:38:31.910Z,17.35
2022-10-28T17:40:58.304Z,17.30
2022-10-28T17:43:24.850Z,17.29
2022-10-28T17:45:51.658Z,17.27
2022-10-28T17:48:18.114Z,17.28
2022-10-28T17:50:45.161Z,17.29
2022-10-28T17:53:11.804Z,17.29
2022-10-28T17:55:38.361Z,17.29
2022-10-28T17:58:04.933Z,17.20
2022-10-28T18:00:31.363Z,17.13
2022-10-28T18:02:57.885Z,17.05
2022-10-28T18:05:24.562Z,16.99
2022-10-28T18:07:55.208Z,16.89
2022-10-28T18:10:21.925Z,16.84
2022-10-28T18:12:51.355Z,16.84
2022-10-28T18:15:17.954Z,16.80
2022-10-28T18:17:49.198Z,16.70
2022-10-28T18:20:15.755Z,16.67
2022-10-28T18:22:42.199Z,16.66
2022-10-28T18:25:08.921Z,16.65
2022-10-28T18:27:35.762Z,16.65
2022-10-28T18:30:02.252Z,16.59
2022-10-28T18:32:28.681Z,16.60
2022-10-28T18:34:55.123Z,16.58
2022-10-28T18:37:21.960Z,16.49
2022-10-28T18:39:49.209Z,16.42
2022-10-28T18:42:19.266Z,16.42
2022-10-28T18:44:48.271Z,16.33
2022-10-28T18:47:14.740Z,16.20
2022-10-28T18:49:41.556Z,15.99
2022-10-28T18:52:08.014Z,15.89
2022-10-28T18:54:34.466Z,15.92
2022-10-28T18:57:00.886Z,15.87
2022-10-28T18:59:27.306Z,15.80
2022-10-28T19:01:53.857Z,15.80
2022-10-28T19:04:20.398Z,15.75
2022-10-28T19:06:46.863Z,15.74
2022-10-28T19:09:13.457Z,15.71
2022-10-28T19:11:39.863Z,15.64
2022-10-28T19:14:06.668Z,15.57
2022-10-28T19:16:34.312Z,15.52
2022-10-28T19:19:02.645Z,15.55
2022-10-28T19:21:29.407Z,15.66
2022-10-28T19:23:56.060Z,15.73
2022-10-28T19:26:23.117Z,15.75
2022-10-28T19:28:50.351Z,15.76
2022-10-28T19:31:19.533Z,15.76
2022-10-28T19:33:46.011Z,15.72
2022-10-28T19:36:22.952Z,15.69
2022-10-28T19:38:51.121Z,15.67
2022-10-28T19:41:19.329Z,15.67
2022-10-28T19:43:46.247Z,15.64
2022-10-28T19:46:20.215Z,15.63
2022-10-28T19:48:48.877Z,15.59
2022-10-28T19:51:18.364Z,15.51
2022-10-28T19:53:48.787Z,15.50
2022-10-28T19:56:18.906Z,15.42
2022-10-28T19:58:46.961Z,15.43
2022-10-28T20:01:14.339Z,15.48
2022-10-28T20:03:44.993Z,15.44
2022-10-28T20:06:15.591Z,15.40
2022-10-28T20:08:46.502Z,15.35
2022-10-28T20:11:15.658Z,15.19
2022-10-28T20:13:42.333Z,15.11
2022-10-28T20:16:13.685Z,15.12
2022-10-28T20:18:41.011Z,15.12
2022-10-28T20:21:11.590Z,15.12
2022-10-28T20:23:38.580Z,15.14
2022-10-28T20:26:06.020Z,15.06
2022-10-28T20:28:33.247Z,15.08
2022-10-28T20:31:10.128Z,15.11
2022-10-28T20:33:39.165Z,15.13
2022-10-28T20:36:07.410Z,15.09
2022-10-28T20:38:34.092Z,15.03
2022-10-28T20:41:01.200Z,14.88
2022-10-28T20:43:29.502Z,14.81
2022-10-28T20:46:00.611Z,14.76
2022-10-28T20:48:28.015Z,14.68
2022-10-28T20:51:00.261Z,14.59
2022-10-28T20:53:28.659Z,14.56
2022-10-28T20:55:56.416Z,14.57
2022-10-28T20:58:25.087Z,14.50
2022-10-28T21:00:55.082Z,14.57
2022-10-28T21:03:22.055Z,14.57
2022-10-28T21:05:48.712Z,14.42
2022-10-28T21:08:15.152Z,14.32
2022-10-28T21:10:41.593Z,14.29
2022-10-28T21:13:08.156Z,14.25
2022-10-28T21:15:39.881Z,14.24
2022-10-28T21:18:07.446Z,14.22
2022-10-28T21:20:38.688Z,14.10
2022-10-28T21:23:06.116Z,14.10
2022-10-28T21:25:33.230Z,14.26
2022-10-28T21:28:00.361Z,14.34
2022-10-28T21:30:28.102Z,14.41
2022-10-28T21:32:55.082Z,14.41
2022-10-28T21:35:21.864Z,14.43
2022-10-28T21:37:48.339Z,14.34
2022-10-28T21:40:14.982Z,14.27
2022-10-28T21:42:48.162Z,14.23
2022-10-28T21:45:14.644Z,14.14
2022-10-28T21:47:41.113Z,14.14
2022-10-28T21:50:07.835Z,14.21
2022-10-28T21:52:34.243Z,14.16
2022-10-28T21:55:06.023Z,14.16
2022-10-28T21:57:41.120Z,14.26
2022-10-28T22:00:08.190Z,14.26
2022-10-28T22:02:34.718Z,14.23
2022-10-28T22:05:01.264Z,14.28
2022-10-28T22:07:27.693Z,14.32
2022-10-28T22:09:54.090Z,14.26
2022-10-28T22:12:20.533Z,14.20
2022-10-28T22:14:46.972Z,14.13
2022-10-28T22:17:13.764Z,14.10
2022-10-28T22:19:40.227Z,14.10
2022-10-28T22:22:06.671Z,14.10
2022-10-28T22:24:33.130Z,13.97
2022-10-28T22:26:59.519Z,13.84
2022-10-28T22:29:25.915Z,13.76
2022-10-28T22:31:52.302Z,13.71
2022-10-28T22:34:18.728Z,13.76
2022-10-28T22:36:47.560Z,13.85
2022-10-28T22:39:14.011Z,13.95
2022-10-28T22:41:40.465Z,13.96
2022-10-28T22:44:07.565Z,13.91
2022-10-28T22:46:36.488Z,13.81
2022-10-28T22:49:03.941Z,13.69
2022-10-28T22:51:30.414Z,13.55
2022-10-28T22:53:57.106Z,13.44
2022-10-28T22:56:25.059Z,13.38
2022-10-28T22:59:01.472Z,13.29
2022-10-28T23:01:29.373Z,13.24
2022-10-28T23:03:56.097Z,13.17
2022-10-28T23:06:24.675Z,13.15
2022-10-28T23:08:52.851Z,13.18
2022-10-28T23:11:20.931Z,13.30
2022-10-28T23:13:52.310Z,13.41
2022-10-28T23:16:19.487Z,13.49
2022-10-28T23:18:45.920Z,13.57
2022-10-28T23:21:18.230Z,13.45
2022-10-28T23:23:51.280Z,13.32
2022-10-28T23:26:20.571Z,13.39
2022-10-28T23:28:51.608Z,13.50
2022-10-28T23:31:18.392Z,13.45
2022-10-28T23:33:44.834Z,13.48
2022-10-28T23:36:13.457Z,13.54
2022-10-28T23:38:40.102Z,13.54
2022-10-28T23:41:09.667Z,13.55
2022-10-28T23:43:36.198Z,13.37
2022-10-28T23:46:02.595Z,13.25
2022-10-28T23:48:29.363Z,13.30
2022-10-28T23:50:56.044Z,13.35
2022-10-28T23:53:23.254Z,13.26
2022-10-28T23:55:50.635Z,13.12
2022-10-28T23:58:18.795Z,13.10
